createdAt,value
2022-10-30T00:01:43.739Z,19.67
2022-10-30T00:04:13.600Z,24.70
2022-10-30T00:06:43.038Z,22.50
2022-10-30T00:09:12.907Z,15.53
2022-10-30T00:11:43.361Z,19.20
2022-10-30T00:14:13.837Z,21.13
2022-10-30T00:16:43.633Z,17.30
2022-10-30T00:19:13.336Z,22.00
2022-10-30T00:21:43.069Z,17.43
2022-10-30T00:24:12.806Z,18.55
2022-10-30T00:26:42.540Z,18.03
2022-10-30T00:29:12.270Z,16.93
2022-10-30T00:31:42.582Z,18.55
2022-10-30T00:34:12.302Z,18.77
2022-10-30T00:36:42.132Z,16.90
2022-10-30T00:39:11.947Z,19.63
2022-10-30T00:41:41.920Z,14.77
2022-10-30T00:44:33.714Z,21.97
2022-10-30T00:47:06.318Z,18.53
2022-10-30T00:49:39.100Z,22.67
2022-10-30T00:52:11.944Z,19.90
2022-10-30T00:54:42.393Z,18.43
2022-10-30T00:57:12.196Z,23.20
2022-10-30T00:59:42.394Z,19.57
2022-10-30T01:02:12.805Z,16.02
2022-10-30T01:04:44.403Z,21.67
2022-10-30T01:07:17.779Z,25.40
2022-10-30T01:09:48.544Z,20.43
2022-10-30T01:12:18.056Z,21.20
2022-10-30T01:14:50.902Z,18.67
2022-10-30T01:17:30.666Z,21.57
2022-10-30T01:20:18.390Z,20.47
2022-10-30T01:23:00.396Z,18.97
2022-10-30T01:25:58.729Z,19.40
2022-10-30T01:28:49.223Z,28.80
2022-10-30T01:31:38.076Z,15.67
2022-10-30T01:34:27.982Z,24.85
2022-10-30T01:37:06.602Z,15.63
2022-10-30T01:39:40.145Z,17.03
2022-10-30T01:42:13.776Z,23.07
2022-10-30T01:44:43.602Z,24.57
2022-10-30T01:47:18.082Z,17.40
2022-10-30T01:50:08.695Z,15.83
2022-10-30T01:52:50.109Z,19.93
2022-10-30T01:55:28.845Z,19.80
2022-10-30T01:58:20.837Z,23.60
2022-10-30T02:00:55.415Z,18.50
2022-10-30T02:03:26.537Z,16.95
2022-10-30T02:05:56.506Z,17.27
2022-10-30T02:08:26.472Z,14.28
2022-10-30T02:10:57.701Z,20.32
2022-10-30T02:13:39.122Z,17.77
2022-10-30T02:16:11.710Z,20.15
2022-10-30T02:18:41.649Z,23.90
2022-10-30T02:21:11.464Z,23.10
2022-10-30T02:23:41.392Z,19.07
2022-10-30T02:26:11.511Z,16.90
2022-10-30T02:28:41.280Z,19.83
2022-10-30T02:31:11.017Z,22.77
2022-10-30T02:33:49.885Z,20.00
2022-10-30T02:36:19.732Z,24.07
2022-10-30T02:38:49.537Z,19.07
2022-10-30T02:41:19.341Z,17.43
2022-10-30T02:43:49.078Z,19.87
2022-10-30T02:46:18.824Z,19.25
2022-10-30T02:48:48.751Z,15.63
2022-10-30T02:51:18.759Z,16.23
2022-10-30T02:53:48.573Z,21.27
2022-10-30T02:56:18.166Z,16.87
2022-10-30T02:58:48.076Z,28.07
2022-10-30T03:01:20.380Z,18.43
2022-10-30T03:03:50.553Z,23.27
2022-10-30T03:06:20.247Z,20.70
2022-10-30T03:08:50.062Z,19.13
2022-10-30T03:11:21.353Z,17.23
2022-10-30T03:13:51.432Z,16.60
2022-10-30T03:16:24.903Z,21.05
2022-10-30T03:18:54.748Z,20.97
2022-10-30T03:21:26.833Z,22.67
2022-10-30T03:23:56.847Z,22.00
2022-10-30T03:26:26.312Z,19.23
2022-10-30T03:29:08.967Z,24.97
2022-10-30T03:31:38.695Z,20.63
2022-10-30T03:34:16.005Z,17.10
2022-10-30T03:36:45.804Z,17.20
2022-10-30T03:39:15.818Z,16.93
2022-10-30T03:41:46.248Z,14.63
2022-10-30T03:44:15.982Z,19.65
2022-10-30T03:46:46.099Z,15.07
2022-10-30T03:49:23.795Z,18.85
2022-10-30T03:51:53.542Z,21.70
2022-10-30T03:54:24.158Z,18.98
2022-10-30T03:56:53.946Z,15.00
2022-10-30T03:59:24.164Z,19.10
2022-10-30T04:01:56.249Z,23.12
2022-10-30T04:04:26.154Z,20.27
2022-10-30T04:06:55.884Z,14.40
2022-10-30T04:09:25.692Z,16.37
2022-10-30T04:11:55.972Z,22.60
2022-10-30T04:14:25.544Z,16.23
2022-10-30T04:16:55.057Z,20.10
2022-10-30T04:19:24.791Z,18.60
2022-10-30T04:21:55.105Z,17.53
2022-10-30T04:24:25.205Z,18.17
2022-10-30T04:26:56.781Z,17.25
2022-10-30T04:29:26.508Z,14.93
2022-10-30T04:31:56.311Z,18.37
2022-10-30T04:34:25.821Z,21.10
2022-10-30T04:36:55.559Z,16.67
2022-10-30T04:39:25.577Z,20.02
2022-10-30T04:41:57.009Z,14.53
2022-10-30T04:44:28.515Z,17.77
2022-10-30T04:46:58.549Z,14.23
2022-10-30T04:49:28.572Z,18.67
2022-10-30T04:51:58.315Z,21.63
2022-10-30T04:54:28.620Z,19.20
2022-10-30T04:56:58.417Z,15.53
2022-10-30T04:59:28.226Z,22.93
2022-10-30T05:01:58.090Z,22.37
2022-10-30T05:04:28.864Z,23.63
2022-10-30T05:06:58.683Z,18.07
2022-10-30T05:09:28.159Z,25.10
2022-10-30T05:11:59.165Z,18.40
2022-10-30T05:14:32.543Z,24.97
2022-10-30T05:17:02.700Z,28.80
2022-10-30T05:19:32.474Z,25.53
2022-10-30T05:22:02.242Z,18.17
2022-10-30T05:24:32.056Z,19.77
2022-10-30T05:27:01.797Z,20.90
2022-10-30T05:29:31.820Z,19.33
2022-10-30T05:32:01.674Z,17.50
2022-10-30T05:34:42.137Z,17.47
2022-10-30T05:37:11.939Z,22.27
2022-10-30T05:39:42.955Z,18.57
2022-10-30T05:42:14.422Z,22.40
2022-10-30T05:45:00.316Z,22.37
2022-10-30T05:47:18.552Z,15.53
2022-10-30T05:49:50.008Z,23.87
2022-10-30T05:52:21.233Z,23.73
2022-10-30T05:54:52.045Z,24.07
2022-10-30T05:57:34.497Z,18.80
2022-10-30T06:00:07.093Z,18.60
2022-10-30T06:02:38.622Z,18.20
2022-10-30T06:05:08.513Z,17.07
2022-10-30T06:07:38.528Z,22.73
2022-10-30T06:10:11.091Z,20.00
2022-10-30T06:12:42.559Z,16.90
2022-10-30T06:15:23.539Z,20.63
2022-10-30T06:17:53.589Z,19.67
2022-10-30T06:20:27.361Z,17.20
2022-10-30T06:23:15.216Z,18.20
2022-10-30T06:25:49.971Z,20.65
2022-10-30T06:28:27.512Z,28.80
2022-10-30T06:30:57.717Z,26.23
2022-10-30T06:33:27.525Z,19.33
2022-10-30T06:35:57.530Z,17.40
2022-10-30T06:38:27.319Z,16.57
2022-10-30T06:40:58.034Z,26.55
2022-10-30T06:43:29.715Z,22.37
2022-10-30T06:46:01.250Z,21.90
2022-10-30T06:48:32.821Z,23.27
2022-10-30T06:51:04.411Z,26.97
2022-10-30T06:53:35.926Z,22.20
2022-10-30T06:58:56.117Z,23.38
2022-10-30T07:01:39.079Z,22.93
2022-10-30T07:04:22.365Z,24.87
2022-10-30T07:06:52.171Z,26.80
2022-10-30T07:09:23.596Z,25.67
2022-10-30T07:11:56.709Z,27.10
2022-10-30T07:14:26.502Z,27.90
2022-10-30T07:16:57.972Z,19.83
2022-10-30T07:19:28.719Z,25.60
2022-10-30T07:21:59.036Z,30.07
2022-10-30T07:24:28.868Z,31.02
2022-10-30T07:27:00.626Z,29.90
2022-10-30T07:29:38.044Z,22.67
2022-10-30T07:32:15.224Z,25.53
2022-10-30T07:34:55.730Z,30.40
2022-10-30T07:37:43.618Z,24.53
2022-10-30T07:40:15.195Z,27.17
2022-10-30T07:42:49.230Z,25.13
2022-10-30T07:45:36.976Z,27.03
2022-10-30T07:48:24.050Z,28.12
2022-10-30T07:50:58.208Z,25.67
2022-10-30T07:53:28.640Z,27.63
2022-10-30T07:56:00.111Z,28.17
2022-10-30T08:01:17.257Z,24.20
2022-10-30T08:03:47.640Z,28.15
2022-10-30T08:06:27.081Z,31.70
2022-10-30T08:08:56.239Z,31.60
2022-10-30T08:11:27.999Z,25.32
2022-10-30T08:13:58.149Z,28.07
2022-10-30T08:16:27.988Z,29.10
2022-10-30T08:19:03.108Z,26.10
2022-10-30T08:21:33.191Z,32.67
2022-10-30T08:24:06.340Z,26.37
2022-10-30T08:26:36.925Z,24.43
2022-10-30T08:29:06.835Z,32.53
2022-10-30T08:31:36.877Z,26.90
2022-10-30T08:34:09.904Z,24.95
2022-10-30T08:36:43.945Z,31.00
2022-10-30T08:39:12.804Z,28.00
2022-10-30T08:41:47.212Z,26.80
2022-10-30T08:44:16.958Z,28.77
2022-10-30T08:47:04.553Z,24.70
2022-10-30T08:49:34.362Z,21.03
2022-10-30T08:52:10.667Z,24.12
2022-10-30T08:54:42.241Z,27.20
2022-10-30T08:57:12.074Z,28.80
2022-10-30T08:59:41.923Z,24.67
2022-10-30T09:02:13.575Z,29.23
2022-10-30T09:05:00.832Z,23.87
2022-10-30T09:07:47.456Z,26.17
2022-10-30T09:10:24.520Z,21.45
2022-10-30T09:13:02.349Z,26.27
2022-10-30T09:15:32.454Z,27.07
2022-10-30T09:18:04.308Z,22.13
2022-10-30T09:20:34.151Z,24.80
2022-10-30T09:23:04.452Z,24.00
2022-10-30T09:25:34.522Z,27.63
2022-10-30T09:28:08.044Z,27.58
2022-10-30T09:30:39.503Z,26.97
2022-10-30T09:33:10.673Z,22.30
2022-10-30T09:35:44.893Z,28.30
2022-10-30T09:38:14.644Z,31.80
2022-10-30T09:41:05.705Z,25.60
2022-10-30T09:43:56.322Z,24.70
2022-10-30T09:46:43.958Z,24.15
2022-10-30T09:49:40.116Z,26.10
2022-10-30T09:52:36.032Z,28.03
2022-10-30T09:55:27.966Z,25.17
2022-10-30T09:58:01.047Z,26.93
2022-10-30T10:00:42.124Z,20.75
2022-10-30T10:03:28.483Z,22.73
2022-10-30T10:06:03.353Z,20.77
2022-10-30T10:08:46.502Z,25.83
2022-10-30T10:11:40.088Z,26.00
2022-10-30T10:14:26.286Z,21.34
2022-10-30T10:16:58.646Z,21.40
2022-10-30T10:19:31.231Z,19.60
2022-10-30T10:22:04.021Z,28.73
2022-10-30T10:24:39.441Z,25.40
2022-10-30T10:27:17.877Z,24.07
2022-10-30T10:30:08.383Z,25.40
2022-10-30T10:32:52.826Z,23.03
2022-10-30T10:35:37.447Z,25.82
2022-10-30T10:38:14.014Z,21.93
2022-10-30T10:43:37.308Z,22.65
2022-10-30T10:46:39.138Z,21.23
2022-10-30T10:49:26.603Z,25.50
2022-10-30T10:51:59.397Z,22.73
2022-10-30T10:54:31.975Z,20.70
2022-10-30T10:57:03.477Z,25.87
2022-10-30T10:59:39.077Z,26.47
2022-10-30T11:02:31.878Z,26.70
2022-10-30T11:05:07.209Z,27.83
2022-10-30T11:07:43.038Z,20.63
2022-10-30T11:10:16.105Z,24.72
2022-10-30T11:12:45.923Z,23.27
2022-10-30T11:15:24.464Z,23.70
2022-10-30T11:18:08.688Z,24.13
2022-10-30T11:20:47.263Z,21.73
2022-10-30T11:23:41.103Z,18.73
2022-10-30T11:26:23.730Z,24.27
2022-10-30T11:29:15.968Z,26.23
2022-10-30T11:31:47.180Z,20.55
2022-10-30T11:34:22.759Z,27.98
2022-10-30T11:36:54.293Z,26.50
2022-10-30T11:39:32.642Z,26.47
2022-10-30T11:42:07.810Z,24.65
2022-10-30T11:44:43.418Z,31.17
2022-10-30T11:47:15.632Z,24.87
2022-10-30T11:49:51.401Z,22.00
2022-10-30T11:52:23.534Z,28.93
2022-10-30T11:54:59.325Z,25.93
2022-10-30T11:57:40.577Z,26.33
2022-10-30T12:00:28.862Z,22.67
2022-10-30T12:03:06.219Z,23.43
2022-10-30T12:05:45.095Z,24.33
2022-10-30T12:08:22.736Z,23.67
2022-10-30T12:10:58.310Z,32.33
2022-10-30T12:13:29.928Z,22.97
2022-10-30T12:16:17.391Z,21.13
2022-10-30T12:18:58.897Z,25.90
2022-10-30T12:21:31.264Z,33.03
2022-10-30T12:24:05.400Z,24.97
2022-10-30T12:26:37.002Z,23.40
2022-10-30T12:29:12.516Z,25.67
2022-10-30T12:31:48.181Z,21.73
2022-10-30T12:34:48.262Z,34.83
2022-10-30T12:37:23.620Z,23.40
2022-10-30T12:40:14.715Z,26.27
2022-10-30T12:42:59.426Z,25.03
2022-10-30T12:45:44.364Z,29.80
2022-10-30T12:48:26.393Z,26.50
2022-10-30T12:51:26.082Z,22.33
2022-10-30T12:54:07.650Z,28.33
2022-10-30T12:56:42.681Z,25.73
2022-10-30T12:59:33.381Z,21.73
2022-10-30T13:02:25.568Z,28.97
2022-10-30T13:04:58.378Z,22.20
2022-10-30T13:07:39.719Z,24.43
2022-10-30T13:10:19.445Z,25.82
2022-10-30T13:12:54.126Z,29.83
2022-10-30T13:15:26.951Z,27.00
2022-10-30T13:18:02.646Z,26.23
2022-10-30T13:20:32.617Z,25.90
2022-10-30T13:23:05.716Z,36.05
2022-10-30T13:25:56.628Z,26.83
2022-10-30T13:28:46.821Z,26.27
2022-10-30T13:31:39.085Z,19.67
2022-10-30T13:34:31.764Z,28.00
2022-10-30T13:37:10.110Z,25.57
2022-10-30T13:39:48.835Z,23.90
2022-10-30T13:42:41.724Z,24.97
2022-10-30T13:45:28.993Z,20.07
2022-10-30T13:48:19.170Z,20.70
2022-10-30T13:50:52.295Z,25.85
2022-10-30T13:53:24.882Z,22.75
2022-10-30T13:56:00.175Z,20.30
2022-10-30T14:01:29.954Z,26.30
2022-10-30T14:04:17.516Z,20.67
2022-10-30T14:06:53.134Z,21.47
2022-10-30T14:10:02.413Z,21.23
2022-10-30T14:12:59.667Z,20.80
2022-10-30T14:15:32.590Z,22.50
2022-10-30T14:18:17.496Z,26.77
2022-10-30T14:20:52.232Z,20.82
2022-10-30T14:23:24.965Z,22.85
2022-10-30T14:26:09.354Z,26.50
2022-10-30T14:28:46.555Z,19.32
2022-10-30T14:31:36.798Z,18.02
2022-10-30T14:34:11.031Z,23.93
2022-10-30T14:36:46.265Z,24.43
2022-10-30T14:39:19.085Z,23.50
2022-10-30T14:42:00.797Z,17.73
2022-10-30T14:44:54.544Z,20.00
2022-10-30T14:47:51.438Z,20.57
2022-10-30T14:50:41.988Z,21.23
2022-10-30T14:53:31.059Z,24.10
2022-10-30T14:56:12.838Z,20.40
2022-10-30T14:58:42.918Z,16.57
2022-10-30T15:01:27.597Z,20.30
2022-10-30T15:04:21.437Z,18.23
2022-10-30T15:06:53.971Z,23.75
2022-10-30T15:09:50.409Z,24.97
2022-10-30T15:12:40.819Z,21.63
2022-10-30T15:15:16.913Z,20.24
2022-10-30T15:17:52.306Z,14.75
2022-10-30T15:20:27.012Z,15.78
2022-10-30T15:23:08.316Z,22.37
2022-10-30T15:25:41.104Z,23.97
2022-10-30T15:28:15.139Z,19.48
2022-10-30T15:31:02.469Z,20.17
2022-10-30T15:33:34.889Z,18.53
2022-10-30T15:36:07.232Z,22.30
2022-10-30T15:38:37.347Z,17.60
2022-10-30T15:41:08.230Z,26.10
2022-10-30T15:43:40.884Z,20.15
2022-10-30T15:46:14.974Z,17.52
2022-10-30T15:48:47.598Z,21.13
2022-10-30T15:51:19.966Z,33.80
2022-10-30T15:53:55.487Z,18.90
2022-10-30T15:57:17.877Z,26.02
2022-10-30T15:59:22.099Z,19.85
2022-10-30T16:01:54.621Z,24.50
2022-10-30T16:04:26.594Z,22.22
2022-10-30T16:06:58.458Z,17.00
2022-10-30T16:09:29.546Z,15.35
2022-10-30T16:12:01.292Z,18.00
2022-10-30T16:14:34.313Z,24.37
2022-10-30T16:17:04.414Z,23.37
2022-10-30T16:19:37.545Z,17.73
2022-10-30T16:22:08.965Z,19.77
2022-10-30T16:24:40.624Z,21.20
2022-10-30T16:27:21.412Z,16.67
2022-10-30T16:29:54.767Z,15.20
2022-10-30T16:32:27.622Z,18.85
2022-10-30T16:34:59.941Z,19.40
2022-10-30T16:37:38.474Z,20.40
2022-10-30T16:40:16.917Z,19.53
2022-10-30T16:42:59.095Z,20.60
2022-10-30T16:45:37.752Z,15.67
2022-10-30T16:48:11.777Z,17.23
2022-10-30T16:50:41.970Z,20.30
2022-10-30T16:53:26.266Z,36.00
2022-10-30T16:55:58.583Z,20.87
2022-10-30T16:58:31.270Z,16.87
2022-10-30T17:01:08.218Z,17.97
2022-10-30T17:03:41.546Z,22.67
2022-10-30T17:06:29.509Z,19.07
2022-10-30T17:09:00.796Z,20.00
2022-10-30T17:11:40.835Z,20.23
2022-10-30T17:14:21.401Z,14.45
2022-10-30T17:16:56.705Z,19.13
2022-10-30T17:19:35.005Z,18.20
2022-10-30T17:22:07.212Z,18.97
2022-10-30T17:24:39.370Z,16.37
2022-10-30T17:27:12.128Z,18.93
2022-10-30T17:29:45.302Z,20.10
2022-10-30T17:32:20.726Z,16.82
2022-10-30T17:35:05.505Z,21.37
2022-10-30T17:37:35.114Z,14.85
2022-10-30T17:40:04.950Z,15.50
2022-10-30T17:42:35.080Z,17.70
2022-10-30T17:45:07.063Z,15.43
2022-10-30T17:47:37.889Z,15.73
2022-10-30T17:50:10.251Z,14.93
2022-10-30T17:52:40.052Z,14.80
2022-10-30T17:55:21.595Z,12.50
2022-10-30T17:57:51.396Z,16.13
2022-10-30T18:00:20.996Z,19.07
2022-10-30T18:02:50.795Z,18.87
2022-10-30T18:05:23.417Z,15.30
2022-10-30T18:07:53.153Z,14.30
2022-10-30T18:10:22.989Z,16.27
2022-10-30T18:12:53.014Z,18.12
2022-10-30T18:15:25.811Z,18.27
2022-10-30T18:17:55.715Z,14.43
2022-10-30T18:20:26.149Z,17.53
2022-10-30T18:22:56.281Z,19.30
2022-10-30T18:25:29.190Z,14.77
2022-10-30T18:27:59.008Z,14.70
2022-10-30T18:30:29.401Z,11.95
2022-10-30T18:32:59.610Z,12.33
2022-10-30T18:35:37.898Z,14.47
2022-10-30T18:38:08.420Z,12.20
2022-10-30T18:40:38.191Z,11.43
2022-10-30T18:43:11.347Z,15.00
2022-10-30T18:45:43.733Z,12.27
2022-10-30T18:48:14.077Z,12.80
2022-10-30T18:50:44.622Z,13.43
2022-10-30T18:53:19.090Z,11.97
2022-10-30T18:55:49.716Z,14.17
2022-10-30T18:58:19.506Z,19.37
2022-10-30T19:01:11.196Z,14.07
2022-10-30T19:03:20.847Z,14.70
2022-10-30T19:05:51.635Z,16.40
2022-10-30T19:08:21.341Z,18.90
2022-10-30T19:13:23.316Z,15.37
2022-10-30T19:16:00.319Z,13.97
2022-10-30T19:18:30.667Z,17.27
2022-10-30T19:21:05.847Z,13.53
2022-10-30T19:23:31.890Z,15.67
2022-10-30T19:26:01.724Z,10.17
2022-10-30T19:28:32.607Z,12.80
2022-10-30T19:31:02.627Z,16.47
2022-10-30T19:33:32.660Z,17.43
2022-10-30T19:36:07.596Z,11.57
2022-10-30T19:38:37.339Z,15.83
2022-10-30T19:41:08.767Z,19.53
2022-10-30T19:43:38.535Z,13.43
2022-10-30T19:46:09.649Z,18.17
2022-10-30T19:51:11.744Z,13.97
2022-10-30T19:53:42.084Z,16.20
2022-10-30T19:56:15.682Z,12.70
2022-10-30T19:58:45.725Z,12.53
2022-10-30T20:01:16.330Z,23.17
2022-10-30T20:03:46.298Z,14.43
2022-10-30T20:06:16.574Z,13.23
2022-10-30T20:08:46.301Z,15.97
2022-10-30T20:11:16.141Z,11.67
2022-10-30T20:13:48.105Z,13.53
2022-10-30T20:16:17.459Z,15.77
2022-10-30T20:18:47.516Z,14.30
2022-10-30T20:21:17.552Z,13.08
2022-10-30T20:23:47.408Z,17.93
2022-10-30T20:26:30.391Z,15.30
2022-10-30T20:29:03.382Z,11.33
2022-10-30T20:31:33.135Z,15.17
2022-10-30T20:34:03.410Z,15.63
2022-10-30T20:36:33.163Z,16.07
2022-10-30T20:39:03.097Z,13.00
2022-10-30T20:41:33.577Z,14.80
2022-10-30T20:44:03.144Z,11.15
2022-10-30T20:46:33.018Z,13.77
2022-10-30T20:49:16.829Z,12.53
2022-10-30T20:51:34.541Z,13.90
2022-10-30T20:54:04.351Z,16.03
2022-10-30T20:56:34.222Z,14.07
2022-10-30T20:59:03.980Z,15.67
2022-10-30T21:01:33.867Z,16.00
2022-10-30T21:04:03.815Z,15.37
2022-10-30T21:06:33.649Z,14.57
2022-10-30T21:09:03.390Z,14.70
2022-10-30T21:11:33.139Z,19.10
2022-10-30T21:14:02.888Z,12.03
2022-10-30T21:16:32.343Z,14.45
2022-10-30T21:19:02.105Z,13.00
2022-10-30T21:21:31.854Z,14.73
2022-10-30T21:24:01.595Z,13.47
2022-10-30T21:26:31.380Z,20.25
2022-10-30T21:29:01.393Z,21.67
2022-10-30T21:31:31.164Z,23.10
2022-10-30T21:34:03.364Z,15.20
2022-10-30T21:36:33.407Z,15.18
2022-10-30T21:39:03.137Z,18.00
2022-10-30T21:41:33.041Z,16.93
2022-10-30T21:44:03.071Z,16.37
2022-10-30T21:46:33.071Z,19.07
2022-10-30T21:49:07.578Z,15.37
2022-10-30T21:51:37.283Z,20.53
2022-10-30T21:54:07.448Z,17.57
2022-10-30T21:56:37.525Z,14.63
2022-10-30T21:59:07.426Z,15.57
2022-10-30T22:01:38.741Z,12.60
2022-10-30T22:04:11.242Z,16.30
2022-10-30T22:06:43.708Z,17.30
2022-10-30T22:09:16.124Z,18.48
2022-10-30T22:11:46.233Z,16.80
2022-10-30T22:14:17.099Z,11.85
2022-10-30T22:16:46.902Z,14.23
2022-10-30T22:19:16.704Z,18.20
2022-10-30T22:21:46.537Z,18.60
2022-10-30T22:24:17.241Z,16.12
2022-10-30T22:26:48.004Z,16.17
2022-10-30T22:29:18.042Z,13.08
2022-10-30T22:31:47.933Z,20.37
2022-10-30T22:34:17.421Z,17.43
2022-10-30T22:36:47.152Z,19.07
2022-10-30T22:39:17.256Z,16.82
2022-10-30T22:41:47.140Z,17.23
2022-10-30T22:44:18.780Z,14.93
2022-10-30T22:46:48.812Z,12.73
2022-10-30T22:49:18.558Z,18.63
2022-10-30T22:51:48.576Z,15.08
2022-10-30T22:54:18.612Z,16.15
2022-10-30T22:56:48.640Z,19.98
2022-10-30T22:59:18.661Z,16.85
2022-10-30T23:01:48.548Z,17.33
2022-10-30T23:04:18.306Z,15.05
2022-10-30T23:06:48.403Z,13.65
2022-10-30T23:09:22.066Z,14.23
2022-10-30T23:11:51.921Z,20.47
2022-10-30T23:14:21.370Z,20.43
2022-10-30T23:16:50.847Z,17.75
2022-10-30T23:19:20.581Z,14.53
2022-10-30T23:21:50.621Z,19.17
2022-10-30T23:24:20.254Z,15.33
2022-10-30T23:26:50.072Z,15.50
2022-10-30T23:29:20.883Z,16.67
2022-10-30T23:31:50.914Z,20.45
2022-10-30T23:34:20.679Z,14.10
2022-10-30T23:36:50.403Z,19.70
2022-10-30T23:39:20.169Z,21.27
2022-10-30T23:41:49.969Z,18.53
2022-10-30T23:44:19.489Z,14.10
2022-10-30T23:46:49.288Z,16.00
2022-10-30T23:49:19.051Z,12.33
2022-10-30T23:51:48.843Z,16.03
2022-10-30T23:54:18.576Z,15.38
2022-10-30T23:56:48.515Z,14.67
2022-10-30T23:59:18.280Z,15.53
